»·PEaware :: N733WT KSMX-KBFL

N733WT :: KSMX-KBFL

FLIGHT INFORMATION

Flight Status: Arrived
Operator: Privately registered:
United States
More flights under this callsign
Pilot: Jeremy K. (15416)
Aircraft: CESSNA 172 SKYHAWK
(C172)
More flights by this aircraft type
Origin: KSMX Santa Maria Pub/Capt Hancock
United States
Destination: KBFL Meadows
United States
More flights between these airports :: More routes between these airports
Route:
File this flight plan on PilotEdge
Remarks: CAT 05
Altitude:
(Current/Filed)
5,500ft
Speed:
(Current/Filed)
120kts
Departed: 27-May-17 12:09 PM
Arrived: 27-May-17 01:44 PM
Distance/Time
Traveled:
76nm/1:35
Distance/Time
To Go:
Arrived

Flight Plot

Page will automatically refresh every two minutes.


Map Options




Map Legend


Flown Route
Filed Route
Departure Airport
Arrival Airport
Navaid (VOR, NDB)
Fix

Horizontal Profiles

Position Reports

Time Latitude Longitude Heading Altitude Ground
Speed
27-May-17 12:02 34.896971 -120.446405 233 264ft 0kts
27-May-17 12:03 34.896971 -120.446405 233 264ft 0kts
27-May-17 12:04 34.896971 -120.446405 233 264ft 0kts
27-May-17 12:05 34.896949 -120.446428 207 264ft 0kts
27-May-17 12:06 34.896517 -120.447390 201 264ft 13kts
27-May-17 12:07 34.895565 -120.446586 137 264ft 16kts
27-May-17 12:08 34.894164 -120.445375 176 264ft 9kts
27-May-17 12:09 34.893588 -120.445384 180 264ft 0kts
27-May-17 12:10 34.893224 -120.446294 315 264ft 20kts
27-May-17 12:11 34.899124 -120.453906 311 505ft 82kts
27-May-17 12:12 34.904696 -120.463476 299 1195ft 66kts
27-May-17 12:13 34.912280 -120.470201 339 1462ft 93kts
27-May-17 12:14 34.922496 -120.467250 45 1744ft 103kts
27-May-17 12:15 34.925249 -120.455093 93 2016ft 106kts
27-May-17 12:16 34.924625 -120.444056 93 2230ft 104kts
27-May-17 12:17 34.923980 -120.432625 91 2459ft 103kts
27-May-17 12:18 34.924387 -120.420830 83 2699ft 103kts
27-May-17 12:19 34.926484 -120.406321 76 3008ft 102kts
27-May-17 12:20 34.929955 -120.391292 71 3346ft 100kts
27-May-17 12:21 34.934296 -120.376257 69 3407ft 121kts
27-May-17 12:22 34.939683 -120.359675 67 3391ft 124kts
27-May-17 12:23 34.945388 -120.343412 66 3390ft 123kts
27-May-17 12:24 34.951308 -120.327201 65 3414ft 123kts
27-May-17 12:25 34.959812 -120.304640 65 3396ft 124kts
27-May-17 12:26 34.966734 -120.286502 65 3398ft 123kts
27-May-17 12:27 34.972203 -120.272263 64 3412ft 124kts
27-May-17 12:28 34.977860 -120.257577 64 3393ft 124kts
27-May-17 12:29 34.984478 -120.240425 64 3402ft 124kts
27-May-17 12:30 34.990861 -120.223897 64 3393ft 124kts
27-May-17 12:31 34.997429 -120.206895 64 3390ft 123kts
27-May-17 12:32 35.003990 -120.189913 65 3411ft 123kts
27-May-17 12:33 35.010696 -120.172524 64 3398ft 125kts
27-May-17 12:34 35.017429 -120.155101 64 3390ft 123kts
27-May-17 12:35 35.025196 -120.134969 64 3411ft 123kts
27-May-17 12:36 35.031575 -120.118424 64 3409ft 128kts
27-May-17 12:37 35.037288 -120.103583 64 3715ft 102kts
27-May-17 12:38 35.042350 -120.090544 64 3919ft 105kts
27-May-17 12:39 35.050162 -120.070314 64 3837ft 121kts
27-May-17 12:40 35.056081 -120.054885 64 3849ft 121kts
27-May-17 12:41 35.062333 -120.038588 64 3861ft 122kts
27-May-17 12:42 35.068924 -120.021430 64 3861ft 123kts
27-May-17 12:43 35.075592 -120.004063 64 3885ft 126kts
27-May-17 12:44 35.082343 -119.986475 64 3860ft 125kts
27-May-17 12:45 35.089067 -119.968954 64 3859ft 124kts
27-May-17 12:46 35.095740 -119.951561 64 3867ft 124kts
27-May-17 12:47 35.101981 -119.935285 64 3861ft 124kts
27-May-17 12:48 35.108430 -119.918456 64 3874ft 126kts
27-May-17 12:49 35.114182 -119.903459 64 3990ft 120kts
27-May-17 12:50 35.123318 -119.879592 64 3989ft 125kts
27-May-17 12:51 35.129747 -119.862778 64 3999ft 127kts
27-May-17 12:52 35.136373 -119.845442 64 3982ft 127kts
27-May-17 12:53 35.143086 -119.827873 64 3979ft 126kts
27-May-17 12:54 35.149768 -119.810382 64 3983ft 125kts
27-May-17 12:55 35.156398 -119.793017 64 3978ft 124kts
27-May-17 12:56 35.163008 -119.775698 64 3980ft 124kts
27-May-17 12:57 35.169636 -119.758318 64 3979ft 124kts
27-May-17 12:58 35.176183 -119.741144 64 3983ft 125kts
27-May-17 12:59 35.182716 -119.723995 64 3978ft 124kts
27-May-17 13:00 35.189186 -119.707000 64 3981ft 125kts
27-May-17 13:01 35.195613 -119.690112 64 3997ft 124kts
27-May-17 13:02 35.201973 -119.673389 64 3985ft 126kts
27-May-17 13:03 35.208399 -119.656485 64 3978ft 124kts
27-May-17 13:04 35.214798 -119.639649 64 3999ft 123kts
27-May-17 13:05 35.221258 -119.622639 64 3984ft 125kts
27-May-17 13:06 35.227806 -119.605383 64 3975ft 126kts
27-May-17 13:07 35.234474 -119.587793 64 3930ft 126kts
27-May-17 13:08 35.241222 -119.569984 64 3902ft 126kts
27-May-17 13:09 35.247943 -119.552230 64 3885ft 127kts
27-May-17 13:10 35.254639 -119.534583 64 3857ft 125kts
27-May-17 13:11 35.261197 -119.517255 64 3858ft 124kts
27-May-17 13:12 35.267706 -119.500054 64 3858ft 123kts
27-May-17 13:13 35.274172 -119.482922 65 3858ft 123kts
27-May-17 13:14 35.280942 -119.465010 64 3862ft 124kts
27-May-17 13:15 35.288154 -119.445925 64 3862ft 125kts
27-May-17 13:16 35.295416 -119.426688 64 3860ft 124kts
27-May-17 13:17 35.302705 -119.407363 64 3869ft 127kts
27-May-17 13:18 35.309719 -119.388760 64 3863ft 125kts
27-May-17 13:19 35.316914 -119.369669 64 3858ft 124kts
27-May-17 13:20 35.324105 -119.350572 64 3914ft 127kts
27-May-17 13:21 35.330932 -119.332425 65 3859ft 127kts
27-May-17 13:22 35.338255 -119.312957 65 3885ft 127kts
27-May-17 13:23 35.345581 -119.293467 65 3876ft 127kts
27-May-17 13:24 35.352860 -119.274093 65 3859ft 126kts
27-May-17 13:25 35.359529 -119.256687 64 3860ft 124kts
27-May-17 13:26 35.365936 -119.240512 64 3860ft 124kts
27-May-17 13:27 35.371964 -119.225387 64 3849ft 107kts
27-May-17 13:28 35.377010 -119.212679 63 3850ft 91kts
27-May-17 13:29 35.381148 -119.199877 72 3590ft 106kts
27-May-17 13:30 35.383926 -119.183953 81 3516ft 118kts
27-May-17 13:31 35.386444 -119.167324 75 3586ft 128kts
27-May-17 13:32 35.388836 -119.149411 88 3224ft 140kts
27-May-17 13:33 35.389018 -119.131285 90 3259ft 130kts
27-May-17 13:34 35.388026 -119.113941 97 3273ft 126kts
27-May-17 13:35 35.386306 -119.096891 95 2947ft 141kts
27-May-17 13:36 35.386384 -119.079289 79 2438ft 113kts
27-May-17 13:37 35.389299 -119.065476 69 2167ft 90kts
27-May-17 13:38 35.393217 -119.052252 67 1921ft 74kts
27-May-17 13:39 35.396146 -119.042647 69 1698ft 80kts
27-May-17 13:40 35.399259 -119.033147 63 1571ft 76kts
27-May-17 13:41 35.406903 -119.029807 344 1424ft 72kts
27-May-17 13:42 35.414671 -119.033736 319 1150ft 75kts
27-May-17 13:43 35.420312 -119.040209 316 884ft 67kts
27-May-17 13:44 35.425686 -119.046636 317 726ft 64kts
27-May-17 13:45 35.431394 -119.053309 315 564ft 56kts
27-May-17 13:46 35.434922 -119.057440 317 509ft 24kts
27-May-17 13:47 35.436141 -119.057953 40 509ft 0kts
27-May-17 13:48 35.436344 -119.057591 76 509ft 15kts
27-May-17 13:49 35.435680 -119.056180 136 509ft 12kts
27-May-17 13:50 35.434349 -119.054549 133 509ft 16kts
27-May-17 13:51 35.432658 -119.052486 131 509ft 16kts
27-May-17 13:52 35.430931 -119.050452 135 509ft 17kts
27-May-17 13:53 35.429626 -119.048841 135 509ft 16kts
27-May-17 13:54 35.429474 -119.047645 49 509ft 9kts
27-May-17 13:55 35.430233 -119.047042 12 509ft 11kts
27-May-17 13:56 35.430519 -119.047097 254 509ft 0kts
27-May-17 13:57 35.430519 -119.047097 254 509ft 0kts
27-May-17 13:58 35.430519 -119.047097 254 509ft 0kts

Navigation Log

Ident Type
1. KSMX Airport
2. KBFL Airport